Silves — CQMG — position and weather

sailwx.info

Track history (hours):
 
Tides and Currents Weather Stations Pressure Air Temp Water Temp Dewpoint Dewpoint Depression Visibility Wind Speed Wind Dir Waves Ship Positions

Silves

Last reported at 2017-Sep-24 07:51 UTC. Time now 2017-Sep-24 08:43 UTC.
Position N 50°07' W 005°51'.

Length 90 m; draft 5.4 m.

Type: Cargo ship. MMSI: 255803360.

Date/timePositionNaut miles runAvg speedWind from/ knotsBaromVisibWave heightAir tempDewpointWater temp
2017-Sep-24 07:51N 50°07' W 005°51'4 9.8
2017-Sep-24 07:26N 50°03' W 005°51'29 8.4
2017-Sep-24 03:59N 49°54' W 005°09'5 9.3
2017-Sep-24 03:30N 49°54' W 005°02'5 9.7
2017-Sep-24 03:00N 49°54' W 004°54'510.2
2017-Sep-24 02:31N 49°56' W 004°47'510.5
2017-Sep-24 02:00N 49°57' W 004°39'510.6
2017-Sep-24 01:30N 49°58' W 004°31'510.6
2017-Sep-24 01:00N 49°60' W 004°23'610.6
2017-Sep-24 00:29N 50°01' W 004°15'610.5
2017-Sep-23 23:53N 50°03' W 004°05'410.2
2017-Sep-23 23:30N 50°04' W 003°59'5 9.9
2017-Sep-23 23:01N 50°04' W 003°52'5 9.6
2017-Sep-23 22:30N 50°05' W 003°44'4 9.0
2017-Sep-23 22:01N 50°06' W 003°37'4 8.7
2017-Sep-23 21:30N 50°06' W 003°31'4 8.4
2017-Sep-23 21:00N 50°07' W 003°24'4 8.4
2017-Sep-23 20:30N 50°08' W 003°18'4 8.5
2017-Sep-23 20:00N 50°08' W 003°11'271 6.4
2017-Sep-22 02:01N 54°14' W 000°05'510.2
2017-Sep-22 01:30N 54°18' W 000°10'5 9.8
2017-Sep-22 01:00N 54°22' W 000°16'5 9.4
2017-Sep-22 00:31N 54°25' W 000°21'5 9.1
2017-Sep-22 00:01N 54°29' W 000°26'4 8.7
2017-Sep-21 23:31N 54°32' W 000°30'  
2017-Sep-19 16:17N 54°41' W 001°00'3 2.9
2017-Sep-19 15:19N 54°39' W 000°56'17 4.8
2017-Sep-19 11:47N 54°32' W 000°30'310.4
2017-Sep-19 11:30N 54°30' W 000°26'510.6
2017-Sep-19 11:00N 54°26' W 000°20'611.1
2017-Sep-19 10:30N 54°22' W 000°14'611.3
2017-Sep-19 10:00N 54°18' W 000°08'611.4
2017-Sep-19 09:30N 54°13' W 000°01'611.6
2017-Sep-19 09:01N 54°09' E 000°06'611.4
2017-Sep-19 08:30N 54°05' E 000°12'611.1
2017-Sep-19 08:00N 54°00' E 000°18'55 9.0
2017-Sep-19 01:56N 53°17' E 001°14'510.5
2017-Sep-19 01:27N 53°13' E 001°19'511.4
2017-Sep-19 01:00N 53°09' E 001°25'711.6
2017-Sep-19 00:26N 53°04' E 001°33'511.5
2017-Sep-18 23:58N 53°00' E 001°39'611.5
2017-Sep-18 23:26N 52°56' E 001°45'611.0
2017-Sep-18 22:52N 52°51' E 001°51'510.2
2017-Sep-18 22:24N 52°46' E 001°54'35 7.7
2017-Sep-18 17:53N 52°12' E 001°53'3 7.9
2017-Sep-18 17:30N 52°09' E 001°52'4 8.4
2017-Sep-18 17:00N 52°05' E 001°51'5 9.2
2017-Sep-18 16:30N 52°00' E 001°50'510.1
2017-Sep-18 16:00N 51°55' E 001°48'510.6
2017-Sep-18 15:30N 51°50' E 001°48'510.8
2017-Sep-18 15:00N 51°44' E 001°48'510.7
2017-Sep-18 14:30N 51°39' E 001°48'510.8
2017-Sep-18 14:00N 51°35' E 001°42'611.2
2017-Sep-18 13:30N 51°31' E 001°36'611.1
2017-Sep-18 13:00N 51°27' E 001°29'3 6.6
2017-Sep-18 12:30N 51°25' E 001°25'0 0.1
2017-Sep-18 12:00N 51°25' E 001°25'0 0.0
2017-Sep-18 11:30N 51°25' E 001°25'0 0.3
2017-Sep-18 11:00N 51°25' E 001°25'0 0.1
2017-Sep-18 10:30N 51°25' E 001°25'0 0.0
2017-Sep-18 10:00N 51°25' E 001°25'0 0.0
2017-Sep-18 09:30N 51°25' E 001°25'0 0.1
2017-Sep-18 09:00N 51°25' E 001°25'0 0.1
2017-Sep-18 08:30N 51°25' E 001°25'0 0.1
2017-Sep-18 08:00N 51°25' E 001°25'0 0.0
2017-Sep-18 07:30N 51°25' E 001°25'0 0.0
2017-Sep-18 07:00N 51°25' E 001°25'0 0.0
2017-Sep-18 06:30N 51°25' E 001°25'0 0.0
2017-Sep-18 06:00N 51°25' E 001°25'0 0.0
2017-Sep-18 05:30N 51°25' E 001°25'0 0.0
2017-Sep-18 05:00N 51°25' E 001°25'0 0.0
2017-Sep-18 04:30N 51°25' E 001°25'0 0.0
2017-Sep-18 04:00N 51°25' E 001°25'0 0.0
2017-Sep-18 03:30N 51°25' E 001°25'0 0.0
2017-Sep-18 03:00N 51°25' E 001°25'0 0.0
2017-Sep-18 02:30N 51°25' E 001°25'0 0.0
2017-Sep-18 02:00N 51°25' E 001°25'0 0.0
2017-Sep-18 01:30N 51°25' E 001°25'0 0.0
2017-Sep-18 01:00N 51°25' E 001°25'0 0.0
2017-Sep-18 00:31N 51°25' E 001°25'0 0.0
2017-Sep-18 00:00N 51°25' E 001°25'0 0.1
2017-Sep-17 23:31N 51°25' E 001°25'0 0.0
2017-Sep-17 23:00N 51°25' E 001°25'0 0.2
2017-Sep-17 22:30N 51°25' E 001°25'0 0.0
2017-Sep-17 22:00N 51°25' E 001°25'0 0.0
2017-Sep-17 21:30N 51°25' E 001°25'0 0.0
2017-Sep-17 21:00N 51°25' E 001°25'0 0.0
2017-Sep-17 20:30N 51°25' E 001°25'0 0.0
2017-Sep-17 20:00N 51°25' E 001°25'0 0.0
2017-Sep-17 19:31N 51°25' E 001°25'0 0.1
2017-Sep-17 19:00N 51°25' E 001°25'0 0.0
2017-Sep-17 18:30N 51°25' E 001°25'0 0.0
2017-Sep-17 18:00N 51°25' E 001°25'0 0.0
2017-Sep-17 17:30N 51°25' E 001°25'0 0.0
2017-Sep-17 17:00N 51°25' E 001°25'0 0.1
2017-Sep-17 16:31N 51°25' E 001°25'0 0.0
2017-Sep-17 16:01N 51°25' E 001°25'0 0.0
2017-Sep-17 15:31N 51°25' E 001°25'0 0.0
2017-Sep-17 15:01N 51°25' E 001°25'0 0.0
2017-Sep-17 14:31N 51°25' E 001°25'0 0.0
2017-Sep-17 14:01N 51°25' E 001°25'0 0.0
2017-Sep-17 13:31N 51°25' E 001°25'0 0.0
2017-Sep-17 13:01N 51°25' E 001°25'0 0.0
2017-Sep-17 12:30N 51°25' E 001°25'0 0.0
2017-Sep-17 12:00N 51°25' E 001°25'0 0.0
2017-Sep-17 11:30N 51°25' E 001°25'0 0.0
2017-Sep-17 11:01N 51°25' E 001°25'0 0.1
2017-Sep-17 10:31N 51°25' E 001°25'0 0.1
2017-Sep-17 10:00N 51°25' E 001°25'0 0.0
2017-Sep-17 09:31N 51°25' E 001°25'0 0.0
2017-Sep-17 09:00N 51°25' E 001°25'0 0.0
2017-Sep-17 08:30N 51°25' E 001°25'0 0.0
2017-Sep-17 08:01N 51°25' E 001°25'0 0.0
2017-Sep-17 07:31N 51°25' E 001°25'0 0.0
2017-Sep-17 07:01N 51°25' E 001°25'0 0.0
2017-Sep-17 06:31N 51°25' E 001°25'0 0.0
2017-Sep-17 06:01N 51°25' E 001°25'0 0.0
2017-Sep-17 05:31N 51°25' E 001°25'0 0.0
2017-Sep-17 05:01N 51°25' E 001°25'0 0.1
2017-Sep-17 04:30N 51°25' E 001°25'0 0.0
2017-Sep-17 04:00N 51°25' E 001°25'0 0.0
2017-Sep-17 03:30N 51°25' E 001°25'0 0.1
2017-Sep-17 03:01N 51°25' E 001°25'0 0.0
2017-Sep-17 02:31N 51°25' E 001°25'0 0.0
2017-Sep-17 02:01N 51°25' E 001°25'0 0.0
2017-Sep-17 01:30N 51°25' E 001°25'0 0.0
2017-Sep-17 01:00N 51°25' E 001°25'0 0.0
2017-Sep-17 00:31N 51°25' E 001°25'0 0.0
2017-Sep-17 00:01N 51°25' E 001°25'0 0.0
2017-Sep-16 23:31N 51°25' E 001°25'0 0.0
2017-Sep-16 23:01N 51°25' E 001°25'0 0.0
2017-Sep-16 22:31N 51°25' E 001°25'0 0.0
2017-Sep-16 22:01N 51°25' E 001°25'0 0.2
2017-Sep-16 21:29N 51°25' E 001°25'0 0.0
2017-Sep-16 21:00N 51°25' E 001°25'0 0.0
2017-Sep-16 20:31N 51°25' E 001°25'0 0.1
2017-Sep-16 20:01N 51°25' E 001°25'0 0.0
2017-Sep-16 19:30N 51°25' E 001°25'0 0.0
2017-Sep-16 19:01N 51°25' E 001°25'0 0.0
2017-Sep-16 18:31N 51°25' E 001°25'0 0.0
2017-Sep-16 18:01N 51°25' E 001°25'0 0.0
2017-Sep-16 17:30N 51°25' E 001°25'0 0.0
2017-Sep-16 17:00N 51°25' E 001°25'0 0.0
2017-Sep-16 16:30N 51°25' E 001°25'0 0.0
2017-Sep-16 16:00N 51°25' E 001°25'0 0.1
2017-Sep-16 15:30N 51°25' E 001°25'0 0.0
2017-Sep-16 15:01N 51°25' E 001°25'0 0.1
2017-Sep-16 14:30N 51°25' E 001°25'0 0.0
2017-Sep-16 14:00N 51°25' E 001°25'0 0.0
2017-Sep-16 13:31N 51°25' E 001°25'0 0.0
2017-Sep-16 13:01N 51°25' E 001°25'0 0.0
2017-Sep-16 12:30N 51°25' E 001°25'0 0.0
2017-Sep-16 12:00N 51°25' E 001°25'0 0.0
2017-Sep-16 11:31N 51°25' E 001°25'0 0.0
2017-Sep-16 11:00N 51°25' E 001°25'0 0.0
2017-Sep-16 10:31N 51°25' E 001°25'0 0.0
2017-Sep-16 10:01N 51°25' E 001°25'0 0.0
2017-Sep-16 09:30N 51°25' E 001°25'0 0.1
2017-Sep-16 09:01N 51°25' E 001°25'0 0.1
2017-Sep-16 08:31N 51°25' E 001°25'0 0.0
2017-Sep-16 08:00N 51°25' E 001°25'0 0.0
2017-Sep-16 07:30N 51°25' E 001°25'0 0.0
2017-Sep-16 07:00N 51°25' E 001°25'0 0.0
2017-Sep-16 06:29N 51°25' E 001°25'0 0.1
2017-Sep-16 06:00N 51°25' E 001°25'0 0.1
2017-Sep-16 05:30N 51°25' E 001°25'0 0.0
2017-Sep-16 05:00N 51°25' E 001°25'0 0.0
2017-Sep-16 04:30N 51°25' E 001°25'0 0.0
2017-Sep-16 04:00N 51°25' E 001°25'0 0.0
2017-Sep-16 03:30N 51°25' E 001°25'0 0.0
2017-Sep-16 03:00N 51°25' E 001°25'0 0.0
2017-Sep-16 02:28N 51°25' E 001°25'0 0.0
2017-Sep-16 02:00N 51°25' E 001°25'0 0.0
2017-Sep-16 01:30N 51°25' E 001°25'0 0.0
2017-Sep-16 01:00N 51°25' E 001°25'0 0.0
2017-Sep-16 00:30N 51°25' E 001°25'0 0.0
2017-Sep-16 00:00N 51°25' E 001°25'0 0.0
2017-Sep-15 23:30N 51°25' E 001°25'0 0.0
2017-Sep-15 23:00N 51°25' E 001°25'0 0.0
2017-Sep-15 22:30N 51°25' E 001°25'0 0.0
2017-Sep-15 22:00N 51°25' E 001°25'0 0.0
2017-Sep-15 21:30N 51°25' E 001°25'0 0.0
2017-Sep-15 21:01N 51°25' E 001°25'0 0.0
2017-Sep-15 20:30N 51°25' E 001°25'0 0.0
2017-Sep-15 20:01N 51°25' E 001°25'0 0.1
2017-Sep-15 19:30N 51°25' E 001°25'0 0.1
2017-Sep-15 19:00N 51°25' E 001°25'0 0.0
2017-Sep-15 18:30N 51°25' E 001°25'0 0.0
2017-Sep-15 18:00N 51°25' E 001°25'0 0.0
2017-Sep-15 17:30N 51°25' E 001°25'0 0.1
2017-Sep-15 17:00N 51°25' E 001°25'0 0.0
2017-Sep-15 16:30N 51°25' E 001°25'0 0.0
2017-Sep-15 16:00N 51°25' E 001°25'0 0.0
2017-Sep-15 15:30N 51°25' E 001°25'0 0.0
2017-Sep-15 15:00N 51°25' E 001°25'0 0.0
2017-Sep-15 14:30N 51°25' E 001°25'0 0.0
2017-Sep-15 14:00N 51°25' E 001°25'0 0.1
2017-Sep-15 13:30N 51°25' E 001°25'0 0.0
2017-Sep-15 13:00N 51°25' E 001°25'0 0.0
2017-Sep-15 12:30N 51°25' E 001°25'0 0.0
2017-Sep-15 12:00N 51°25' E 001°25'0 0.0
2017-Sep-15 11:30N 51°25' E 001°25'0 0.0
2017-Sep-15 11:00N 51°25' E 001°25'0 0.0
2017-Sep-15 10:30N 51°25' E 001°25'0 0.0
2017-Sep-15 10:00N 51°25' E 001°25'0 0.0
2017-Sep-15 09:30N 51°25' E 001°25'0 0.0
2017-Sep-15 09:00N 51°25' E 001°25'0 0.0
2017-Sep-15 08:30N 51°25' E 001°25'0 0.0
2017-Sep-15 08:00N 51°25' E 001°25'0 0.0
2017-Sep-15 07:30N 51°25' E 001°25'0 0.2
2017-Sep-15 07:00N 51°25' E 001°25'0 0.1
2017-Sep-15 06:30N 51°25' E 001°25'0 0.0
2017-Sep-15 06:00N 51°25' E 001°25'0 0.0
2017-Sep-15 05:30N 51°25' E 001°25'0 0.1
2017-Sep-15 05:00N 51°25' E 001°25'0 0.1
2017-Sep-15 04:30N 51°25' E 001°25'0 0.1
2017-Sep-15 04:00N 51°25' E 001°25'0 0.0
2017-Sep-15 03:30N 51°25' E 001°25'0 0.0
2017-Sep-15 03:00N 51°25' E 001°25'0 0.0
2017-Sep-15 02:30N 51°25' E 001°25'0 0.0
2017-Sep-15 02:00N 51°25' E 001°25'0 0.0
2017-Sep-15 01:30N 51°25' E 001°25'0 0.0
2017-Sep-15 01:00N 51°25' E 001°25'0 0.0
2017-Sep-15 00:30N 51°25' E 001°25'0 0.0
2017-Sep-15 00:00N 51°25' E 001°25'0 0.0
2017-Sep-14 23:30N 51°25' E 001°25'0 0.0
2017-Sep-14 23:00N 51°25' E 001°25'0 0.0
2017-Sep-14 22:30N 51°25' E 001°25'0 0.0
2017-Sep-14 22:00N 51°25' E 001°25'0 0.1
2017-Sep-14 21:30N 51°25' E 001°25'0 0.0
2017-Sep-14 21:00N 51°25' E 001°25'0 0.0
2017-Sep-14 20:30N 51°25' E 001°25'0 0.0
2017-Sep-14 20:00N 51°25' E 001°25'0 0.1
2017-Sep-14 19:30N 51°25' E 001°25'0 0.0
2017-Sep-14 19:01N 51°25' E 001°25'0 0.1
2017-Sep-14 18:31N 51°25' E 001°25'0 0.2
2017-Sep-14 18:00N 51°25' E 001°25'0 0.7
2017-Sep-14 17:31N 51°25' E 001°25'3 5.6
2017-Sep-14 17:01N 51°27' E 001°28'5 9.9
2017-Sep-14 16:31N 51°29' E 001°36'510.0
2017-Sep-14 16:01N 51°31' E 001°43'5 9.1
2017-Sep-14 15:31N 51°33' E 001°50'510.1
2017-Sep-14 15:01N 51°37' E 001°46'611.8
2017-Sep-14 14:31N 51°43' E 001°45'612.0
2017-Sep-14 14:01N 51°49' E 001°45'611.9
2017-Sep-14 13:31N 51°55' E 001°45'611.8
2017-Sep-14 13:00N 52°01' E 001°47'611.8
2017-Sep-14 12:31N 52°07' E 001°48'911.2
2017-Sep-14 11:43N 52°16' E 001°51'310.7
2017-Sep-14 11:26N 52°18' E 001°51'510.5
2017-Sep-14 11:00N 52°23' E 001°53'5 9.9
2017-Sep-14 10:30N 52°28' E 001°54'5 9.2
2017-Sep-14 10:00N 52°32' E 001°55'5 8.7
2017-Sep-14 09:26N 52°37' E 001°57'4 8.2
2017-Sep-14 08:57N 52°41' E 001°56'4 8.0
2017-Sep-14 08:28N 52°45' E 001°54'4 8.5
2017-Sep-14 07:58N 52°48' E 001°48'  
Track history (hours):
 
Tides and Currents Weather Stations Pressure Air Temp Water Temp Dewpoint Dewpoint Depression Visibility Wind Speed Wind Dir Waves Ship Positions

Silves

Last reported at 2017-Sep-24 07:51 UTC. Time now 2017-Sep-24 08:43 UTC.
Position N 50°07' W 005°51'.

Length 90 m; draft 5.4 m.

Type: Cargo ship. MMSI: 255803360.

Date/timePositionNaut miles runAvg speedWind from/ knotsBaromVisibWave heightAir tempDewpointWater temp
2017-Sep-24 07:51N 50°07' W 005°51'4 9.8
2017-Sep-24 07:26N 50°03' W 005°51'29 8.4
2017-Sep-24 03:59N 49°54' W 005°09'5 9.3
2017-Sep-24 03:30N 49°54' W 005°02'5 9.7
2017-Sep-24 03:00N 49°54' W 004°54'510.2
2017-Sep-24 02:31N 49°56' W 004°47'510.5
2017-Sep-24 02:00N 49°57' W 004°39'510.6
2017-Sep-24 01:30N 49°58' W 004°31'510.6
2017-Sep-24 01:00N 49°60' W 004°23'610.6
2017-Sep-24 00:29N 50°01' W 004°15'610.5
2017-Sep-23 23:53N 50°03' W 004°05'410.2
2017-Sep-23 23:30N 50°04' W 003°59'5 9.9
2017-Sep-23 23:01N 50°04' W 003°52'5 9.6
2017-Sep-23 22:30N 50°05' W 003°44'4 9.0
2017-Sep-23 22:01N 50°06' W 003°37'4 8.7
2017-Sep-23 21:30N 50°06' W 003°31'4 8.4
2017-Sep-23 21:00N 50°07' W 003°24'4 8.4
2017-Sep-23 20:30N 50°08' W 003°18'4 8.5
2017-Sep-23 20:00N 50°08' W 003°11'271 6.4
2017-Sep-22 02:01N 54°14' W 000°05'510.2
2017-Sep-22 01:30N 54°18' W 000°10'5 9.8
2017-Sep-22 01:00N 54°22' W 000°16'5 9.4
2017-Sep-22 00:31N 54°25' W 000°21'5 9.1
2017-Sep-22 00:01N 54°29' W 000°26'4 8.7
2017-Sep-21 23:31N 54°32' W 000°30'  
2017-Sep-19 16:17N 54°41' W 001°00'3 2.9
2017-Sep-19 15:19N 54°39' W 000°56'17 4.8
2017-Sep-19 11:47N 54°32' W 000°30'310.4
2017-Sep-19 11:30N 54°30' W 000°26'510.6
2017-Sep-19 11:00N 54°26' W 000°20'611.1
2017-Sep-19 10:30N 54°22' W 000°14'611.3
2017-Sep-19 10:00N 54°18' W 000°08'611.4
2017-Sep-19 09:30N 54°13' W 000°01'611.6
2017-Sep-19 09:01N 54°09' E 000°06'611.4
2017-Sep-19 08:30N 54°05' E 000°12'611.1
2017-Sep-19 08:00N 54°00' E 000°18'55 9.0
2017-Sep-19 01:56N 53°17' E 001°14'510.5
2017-Sep-19 01:27N 53°13' E 001°19'511.4
2017-Sep-19 01:00N 53°09' E 001°25'711.6
2017-Sep-19 00:26N 53°04' E 001°33'511.5
2017-Sep-18 23:58N 53°00' E 001°39'611.5
2017-Sep-18 23:26N 52°56' E 001°45'611.0
2017-Sep-18 22:52N 52°51' E 001°51'510.2
2017-Sep-18 22:24N 52°46' E 001°54'35 7.7
2017-Sep-18 17:53N 52°12' E 001°53'3 7.9
2017-Sep-18 17:30N 52°09' E 001°52'4 8.4
2017-Sep-18 17:00N 52°05' E 001°51'5 9.2
2017-Sep-18 16:30N 52°00' E 001°50'510.1
2017-Sep-18 16:00N 51°55' E 001°48'510.6
2017-Sep-18 15:30N 51°50' E 001°48'510.8
2017-Sep-18 15:00N 51°44' E 001°48'510.7
2017-Sep-18 14:30N 51°39' E 001°48'510.8
2017-Sep-18 14:00N 51°35' E 001°42'611.2
2017-Sep-18 13:30N 51°31' E 001°36'611.1
2017-Sep-18 13:00N 51°27' E 001°29'3 6.6
2017-Sep-18 12:30N 51°25' E 001°25'0 0.1
2017-Sep-18 12:00N 51°25' E 001°25'0 0.0
2017-Sep-18 11:30N 51°25' E 001°25'0 0.3
2017-Sep-18 11:00N 51°25' E 001°25'0 0.1
2017-Sep-18 10:30N 51°25' E 001°25'0 0.0
2017-Sep-18 10:00N 51°25' E 001°25'0 0.0
2017-Sep-18 09:30N 51°25' E 001°25'0 0.1
2017-Sep-18 09:00N 51°25' E 001°25'0 0.1
2017-Sep-18 08:30N 51°25' E 001°25'0 0.1
2017-Sep-18 08:00N 51°25' E 001°25'0 0.0
2017-Sep-18 07:30N 51°25' E 001°25'0 0.0
2017-Sep-18 07:00N 51°25' E 001°25'0 0.0
2017-Sep-18 06:30N 51°25' E 001°25'0 0.0
2017-Sep-18 06:00N 51°25' E 001°25'0 0.0
2017-Sep-18 05:30N 51°25' E 001°25'0 0.0
2017-Sep-18 05:00N 51°25' E 001°25'0 0.0
2017-Sep-18 04:30N 51°25' E 001°25'0 0.0
2017-Sep-18 04:00N 51°25' E 001°25'0 0.0
2017-Sep-18 03:30N 51°25' E 001°25'0 0.0
2017-Sep-18 03:00N 51°25' E 001°25'0 0.0
2017-Sep-18 02:30N 51°25' E 001°25'0 0.0
2017-Sep-18 02:00N 51°25' E 001°25'0 0.0
2017-Sep-18 01:30N 51°25' E 001°25'0 0.0
2017-Sep-18 01:00N 51°25' E 001°25'0 0.0
2017-Sep-18 00:31N 51°25' E 001°25'0 0.0
2017-Sep-18 00:00N 51°25' E 001°25'0 0.1
2017-Sep-17 23:31N 51°25' E 001°25'0 0.0
2017-Sep-17 23:00N 51°25' E 001°25'0 0.2
2017-Sep-17 22:30N 51°25' E 001°25'0 0.0
2017-Sep-17 22:00N 51°25' E 001°25'0 0.0
2017-Sep-17 21:30N 51°25' E 001°25'0 0.0
2017-Sep-17 21:00N 51°25' E 001°25'0 0.0
2017-Sep-17 20:30N 51°25' E 001°25'0 0.0
2017-Sep-17 20:00N 51°25' E 001°25'0 0.0
2017-Sep-17 19:31N 51°25' E 001°25'0 0.1
2017-Sep-17 19:00N 51°25' E 001°25'0 0.0
2017-Sep-17 18:30N 51°25' E 001°25'0 0.0
2017-Sep-17 18:00N 51°25' E 001°25'0 0.0
2017-Sep-17 17:30N 51°25' E 001°25'0 0.0
2017-Sep-17 17:00N 51°25' E 001°25'0 0.1
2017-Sep-17 16:31N 51°25' E 001°25'0 0.0
2017-Sep-17 16:01N 51°25' E 001°25'0 0.0
2017-Sep-17 15:31N 51°25' E 001°25'0 0.0
2017-Sep-17 15:01N 51°25' E 001°25'0 0.0
2017-Sep-17 14:31N 51°25' E 001°25'0 0.0
2017-Sep-17 14:01N 51°25' E 001°25'0 0.0
2017-Sep-17 13:31N 51°25' E 001°25'0 0.0
2017-Sep-17 13:01N 51°25' E 001°25'0 0.0
2017-Sep-17 12:30N 51°25' E 001°25'0 0.0
2017-Sep-17 12:00N 51°25' E 001°25'0 0.0
2017-Sep-17 11:30N 51°25' E 001°25'0 0.0
2017-Sep-17 11:01N 51°25' E 001°25'0 0.1
2017-Sep-17 10:31N 51°25' E 001°25'0 0.1
2017-Sep-17 10:00N 51°25' E 001°25'0 0.0
2017-Sep-17 09:31N 51°25' E 001°25'0 0.0
2017-Sep-17 09:00N 51°25' E 001°25'0 0.0
2017-Sep-17 08:30N 51°25' E 001°25'0 0.0
2017-Sep-17 08:01N 51°25' E 001°25'0 0.0
2017-Sep-17 07:31N 51°25' E 001°25'0 0.0
2017-Sep-17 07:01N 51°25' E 001°25'0 0.0
2017-Sep-17 06:31N 51°25' E 001°25'0 0.0
2017-Sep-17 06:01N 51°25' E 001°25'0 0.0
2017-Sep-17 05:31N 51°25' E 001°25'0 0.0
2017-Sep-17 05:01N 51°25' E 001°25'0 0.1
2017-Sep-17 04:30N 51°25' E 001°25'0 0.0
2017-Sep-17 04:00N 51°25' E 001°25'0 0.0
2017-Sep-17 03:30N 51°25' E 001°25'0 0.1
2017-Sep-17 03:01N 51°25' E 001°25'0 0.0
2017-Sep-17 02:31N 51°25' E 001°25'0 0.0
2017-Sep-17 02:01N 51°25' E 001°25'0 0.0
2017-Sep-17 01:30N 51°25' E 001°25'0 0.0
2017-Sep-17 01:00N 51°25' E 001°25'0 0.0
2017-Sep-17 00:31N 51°25' E 001°25'0 0.0
2017-Sep-17 00:01N 51°25' E 001°25'0 0.0
2017-Sep-16 23:31N 51°25' E 001°25'0 0.0
2017-Sep-16 23:01N 51°25' E 001°25'0 0.0
2017-Sep-16 22:31N 51°25' E 001°25'0 0.0
2017-Sep-16 22:01N 51°25' E 001°25'0 0.2
2017-Sep-16 21:29N 51°25' E 001°25'0 0.0
2017-Sep-16 21:00N 51°25' E 001°25'0 0.0
2017-Sep-16 20:31N 51°25' E 001°25'0 0.1
2017-Sep-16 20:01N 51°25' E 001°25'0 0.0
2017-Sep-16 19:30N 51°25' E 001°25'0 0.0
2017-Sep-16 19:01N 51°25' E 001°25'0 0.0
2017-Sep-16 18:31N 51°25' E 001°25'0 0.0
2017-Sep-16 18:01N 51°25' E 001°25'0 0.0
2017-Sep-16 17:30N 51°25' E 001°25'0 0.0
2017-Sep-16 17:00N 51°25' E 001°25'0 0.0
2017-Sep-16 16:30N 51°25' E 001°25'0 0.0
2017-Sep-16 16:00N 51°25' E 001°25'0 0.1
2017-Sep-16 15:30N 51°25' E 001°25'0 0.0
2017-Sep-16 15:01N 51°25' E 001°25'0 0.1
2017-Sep-16 14:30N 51°25' E 001°25'0 0.0
2017-Sep-16 14:00N 51°25' E 001°25'0 0.0
2017-Sep-16 13:31N 51°25' E 001°25'0 0.0
2017-Sep-16 13:01N 51°25' E 001°25'0 0.0
2017-Sep-16 12:30N 51°25' E 001°25'0 0.0
2017-Sep-16 12:00N 51°25' E 001°25'0 0.0
2017-Sep-16 11:31N 51°25' E 001°25'0 0.0
2017-Sep-16 11:00N 51°25' E 001°25'0 0.0
2017-Sep-16 10:31N 51°25' E 001°25'0 0.0
2017-Sep-16 10:01N 51°25' E 001°25'0 0.0
2017-Sep-16 09:30N 51°25' E 001°25'0 0.1
2017-Sep-16 09:01N 51°25' E 001°25'0 0.1
2017-Sep-16 08:31N 51°25' E 001°25'0 0.0
2017-Sep-16 08:00N 51°25' E 001°25'0 0.0
2017-Sep-16 07:30N 51°25' E 001°25'0 0.0
2017-Sep-16 07:00N 51°25' E 001°25'0 0.0
2017-Sep-16 06:29N 51°25' E 001°25'0 0.1
2017-Sep-16 06:00N 51°25' E 001°25'0 0.1
2017-Sep-16 05:30N 51°25' E 001°25'0 0.0
2017-Sep-16 05:00N 51°25' E 001°25'0 0.0
2017-Sep-16 04:30N 51°25' E 001°25'0 0.0
2017-Sep-16 04:00N 51°25' E 001°25'0 0.0
2017-Sep-16 03:30N 51°25' E 001°25'0 0.0
2017-Sep-16 03:00N 51°25' E 001°25'0 0.0
2017-Sep-16 02:28N 51°25' E 001°25'0 0.0
2017-Sep-16 02:00N 51°25' E 001°25'0 0.0
2017-Sep-16 01:30N 51°25' E 001°25'0 0.0
2017-Sep-16 01:00N 51°25' E 001°25'0 0.0
2017-Sep-16 00:30N 51°25' E 001°25'0 0.0
2017-Sep-16 00:00N 51°25' E 001°25'0 0.0
2017-Sep-15 23:30N 51°25' E 001°25'0 0.0
2017-Sep-15 23:00N 51°25' E 001°25'0 0.0
2017-Sep-15 22:30N 51°25' E 001°25'0 0.0
2017-Sep-15 22:00N 51°25' E 001°25'0 0.0
2017-Sep-15 21:30N 51°25' E 001°25'0 0.0
2017-Sep-15 21:01N 51°25' E 001°25'0 0.0
2017-Sep-15 20:30N 51°25' E 001°25'0 0.0
2017-Sep-15 20:01N 51°25' E 001°25'0 0.1
2017-Sep-15 19:30N 51°25' E 001°25'0 0.1
2017-Sep-15 19:00N 51°25' E 001°25'0 0.0
2017-Sep-15 18:30N 51°25' E 001°25'0 0.0
2017-Sep-15 18:00N 51°25' E 001°25'0 0.0
2017-Sep-15 17:30N 51°25' E 001°25'0 0.1
2017-Sep-15 17:00N 51°25' E 001°25'0 0.0
2017-Sep-15 16:30N 51°25' E 001°25'0 0.0
2017-Sep-15 16:00N 51°25' E 001°25'0 0.0
2017-Sep-15 15:30N 51°25' E 001°25'0 0.0
2017-Sep-15 15:00N 51°25' E 001°25'0 0.0
2017-Sep-15 14:30N 51°25' E 001°25'0 0.0
2017-Sep-15 14:00N 51°25' E 001°25'0 0.1
2017-Sep-15 13:30N 51°25' E 001°25'0 0.0
2017-Sep-15 13:00N 51°25' E 001°25'0 0.0
2017-Sep-15 12:30N 51°25' E 001°25'0 0.0
2017-Sep-15 12:00N 51°25' E 001°25'0 0.0
2017-Sep-15 11:30N 51°25' E 001°25'0 0.0
2017-Sep-15 11:00N 51°25' E 001°25'0 0.0
2017-Sep-15 10:30N 51°25' E 001°25'0 0.0
2017-Sep-15 10:00N 51°25' E 001°25'0 0.0
2017-Sep-15 09:30N 51°25' E 001°25'0 0.0
2017-Sep-15 09:00N 51°25' E 001°25'0 0.0
2017-Sep-15 08:30N 51°25' E 001°25'0 0.0
2017-Sep-15 08:00N 51°25' E 001°25'0 0.0
2017-Sep-15 07:30N 51°25' E 001°25'0 0.2
2017-Sep-15 07:00N 51°25' E 001°25'0 0.1
2017-Sep-15 06:30N 51°25' E 001°25'0 0.0
2017-Sep-15 06:00N 51°25' E 001°25'0 0.0
2017-Sep-15 05:30N 51°25' E 001°25'0 0.1
2017-Sep-15 05:00N 51°25' E 001°25'0 0.1
2017-Sep-15 04:30N 51°25' E 001°25'0 0.1
2017-Sep-15 04:00N 51°25' E 001°25'0 0.0
2017-Sep-15 03:30N 51°25' E 001°25'0 0.0
2017-Sep-15 03:00N 51°25' E 001°25'0 0.0
2017-Sep-15 02:30N 51°25' E 001°25'0 0.0
2017-Sep-15 02:00N 51°25' E 001°25'0 0.0
2017-Sep-15 01:30N 51°25' E 001°25'0 0.0
2017-Sep-15 01:00N 51°25' E 001°25'0 0.0
2017-Sep-15 00:30N 51°25' E 001°25'0 0.0
2017-Sep-15 00:00N 51°25' E 001°25'0 0.0
2017-Sep-14 23:30N 51°25' E 001°25'0 0.0
2017-Sep-14 23:00N 51°25' E 001°25'0 0.0
2017-Sep-14 22:30N 51°25' E 001°25'0 0.0
2017-Sep-14 22:00N 51°25' E 001°25'0 0.1
2017-Sep-14 21:30N 51°25' E 001°25'0 0.0
2017-Sep-14 21:00N 51°25' E 001°25'0 0.0
2017-Sep-14 20:30N 51°25' E 001°25'0 0.0
2017-Sep-14 20:00N 51°25' E 001°25'0 0.1
2017-Sep-14 19:30N 51°25' E 001°25'0 0.0
2017-Sep-14 19:01N 51°25' E 001°25'0 0.1
2017-Sep-14 18:31N 51°25' E 001°25'0 0.2
2017-Sep-14 18:00N 51°25' E 001°25'0 0.7
2017-Sep-14 17:31N 51°25' E 001°25'3 5.6
2017-Sep-14 17:01N 51°27' E 001°28'5 9.9
2017-Sep-14 16:31N 51°29' E 001°36'510.0
2017-Sep-14 16:01N 51°31' E 001°43'5 9.1
2017-Sep-14 15:31N 51°33' E 001°50'510.1
2017-Sep-14 15:01N 51°37' E 001°46'611.8
2017-Sep-14 14:31N 51°43' E 001°45'612.0
2017-Sep-14 14:01N 51°49' E 001°45'611.9
2017-Sep-14 13:31N 51°55' E 001°45'611.8
2017-Sep-14 13:00N 52°01' E 001°47'611.8
2017-Sep-14 12:31N 52°07' E 001°48'911.2
2017-Sep-14 11:43N 52°16' E 001°51'310.7
2017-Sep-14 11:26N 52°18' E 001°51'510.5
2017-Sep-14 11:00N 52°23' E 001°53'5 9.9
2017-Sep-14 10:30N 52°28' E 001°54'5 9.2
2017-Sep-14 10:00N 52°32' E 001°55'5 8.7
2017-Sep-14 09:26N 52°37' E 001°57'4 8.2
2017-Sep-14 08:57N 52°41' E 001°56'4 8.0
2017-Sep-14 08:28N 52°45' E 001°54'4 8.5
2017-Sep-14 07:58N 52°48' E 001°48'  

Dump ship's entire track history